Terminal Aerodrome Forecast
Issued by NWS

Current Version | Previous Version | Graphics & Text | Print | Product List | Glossary On
Versions: 1 2 3 4 5 6 7 8 9 10 11 12 13 14 15 16 17 18
899
FTUS41 KILN 201039 AAD
TAFLUK
TAF AMD
KLUK 201039Z 2011/2106 VRB03KT 1/4SM FG VV002
     FM201200 VRB03KT 1SM BR BKN004
     FM201400 20005KT 4SM BR BKN010
     FM201500 22005KT P6SM SCT015
     FM201600 22005KT P6SM BKN035
     FM210500 VRB03KT 3SM BR SCT250=

USA.gov is the U.S. government's official web portal to all federal, state and local government web resources and services.